Time;durP1;ratioP1;P1;durP2;ratioP2;P2;SDS_P1;SDS_P2;PMS_P1;PMS_P2;Temp;Humidity;BMP_temperature;BMP_pressure;BME280_temperature;BME280_humidity;BME280_pressure;Samples;Min_cycle;Max_cycle;Signal;HPM_P1;HPM_P2
2022/11/15 00:04:40;;;;;;;7.18;6.40;;;8.90;99.90;;;;;;4755106;30;20322;-83
2022/11/15 00:13:51;;;;;;;5.05;4.60;;;8.90;99.90;;;;;;5397688;22;20614;-84
2022/11/15 00:16:18;;;;;;;5.45;4.95;;;8.90;99.90;;;;;;5066039;28;20217;-84
2022/11/15 00:18:45;;;;;;;6.60;5.35;;;8.90;99.90;;;;;;5066264;28;20209;-84
2022/11/15 00:21:13;;;;;;;6.45;5.75;;;8.90;99.90;;;;;;5065273;28;20227;-84
2022/11/15 00:23:43;;;;;;;4.75;4.35;;;9.00;99.90;;;;;;5065636;28;20227;-85
2022/11/15 00:26:15;;;;;;;5.90;3.83;;;9.00;99.90;;;;;;5066161;28;20500;-85
2022/11/15 00:28:42;;;;;;;5.10;4.70;;;9.00;99.90;;;;;;5067023;28;20281;-84
2022/11/15 00:31:14;;;;;;;5.28;4.82;;;8.90;99.90;;;;;;5066854;28;20564;-85
2022/11/15 00:33:43;;;;;;;4.97;4.60;;;9.00;99.90;;;;;;5068055;28;20262;-85
2022/11/15 00:36:11;;;;;;;5.97;5.47;;;9.00;99.90;;;;;;5068301;28;20286;-85
2022/11/15 00:38:43;;;;;;;4.40;4.00;;;9.00;99.90;;;;;;5067866;28;20210;-85
2022/11/15 00:41:11;;;;;;;5.60;5.10;;;9.00;99.90;;;;;;5067681;28;20258;-85
2022/11/15 00:43:39;;;;;;;4.70;4.38;;;9.00;99.90;;;;;;5067329;28;20230;-85
2022/11/15 00:46:09;;;;;;;5.13;4.35;;;9.00;99.90;;;;;;5067898;28;20202;-85
2022/11/15 00:48:39;;;;;;;4.70;4.35;;;9.00;99.90;;;;;;5067525;28;20208;-85
2022/11/15 00:51:06;;;;;;;6.10;5.50;;;9.10;99.90;;;;;;5067100;28;20680;-85
2022/11/15 00:53:38;;;;;;;5.57;5.03;;;9.00;99.90;;;;;;5065758;28;20289;-85
2022/11/15 00:56:06;;;;;;;6.97;5.00;;;9.00;99.90;;;;;;5066248;28;20198;-86
2022/11/15 00:58:34;;;;;;;5.40;4.82;;;9.10;99.90;;;;;;5067100;28;20218;-85
2022/11/15 01:01:07;;;;;;;4.00;3.70;;;9.10;99.90;;;;;;5066501;28;20223;-85
2022/11/15 01:03:35;;;;;;;4.37;3.90;;;9.10;99.90;;;;;;5066955;28;20321;-86
2022/11/15 01:06:04;;;;;;;4.65;3.95;;;9.10;99.90;;;;;;5066436;28;20456;-85
2022/11/15 01:08:31;;;;;;;4.57;3.55;;;9.10;99.90;;;;;;5067598;28;20217;-85
2022/11/15 01:11:02;;;;;;;3.65;3.35;;;9.10;99.90;;;;;;5066673;28;20208;-85
2022/11/15 01:13:32;;;;;;;3.70;3.40;;;9.10;99.90;;;;;;5067158;28;20257;-85
2022/11/15 01:15:59;;;;;;;4.32;3.92;;;9.10;99.90;;;;;;5066301;28;20211;-85
2022/11/15 01:18:26;;;;;;;4.30;4.00;;;9.00;99.90;;;;;;5066819;28;20227;-85
2022/11/15 01:20:52;;;;;;;3.83;3.47;;;9.10;99.90;;;;;;5067235;28;20578;-84
2022/11/15 01:23:21;;;;;;;4.07;3.28;;;9.10;99.90;;;;;;5066455;28;20241;-85
2022/11/15 01:25:48;;;;;;;3.10;2.90;;;9.00;99.90;;;;;;5066554;28;20208;-85
2022/11/15 01:28:15;;;;;;;3.67;3.28;;;9.00;99.90;;;;;;5075222;28;20228;-86
2022/11/15 01:30:42;;;;;;;6.20;3.70;;;9.00;99.90;;;;;;5079999;28;20220;-85
2022/11/15 01:33:10;;;;;;;4.20;3.58;;;9.00;99.90;;;;;;5077478;28;20257;-85
2022/11/15 01:35:41;;;;;;;3.75;3.45;;;8.90;99.90;;;;;;5066462;28;20198;-85
2022/11/15 01:38:08;;;;;;;4.07;3.72;;;8.80;99.90;;;;;;5065805;28;20305;-84
2022/11/15 01:40:37;;;;;;;3.20;2.90;;;8.80;99.90;;;;;;5066024;28;20200;-85
2022/11/15 01:43:21;;;;;;;2.92;2.70;;;8.80;99.90;;;;;;5066098;28;20242;-85
2022/11/15 01:45:54;;;;;;;4.28;3.90;;;8.70;99.90;;;;;;5067109;28;20227;-85
2022/11/15 01:48:22;;;;;;;3.20;2.90;;;8.70;99.90;;;;;;5066011;28;20199;-86
2022/11/15 01:50:50;;;;;;;4.80;4.30;;;8.70;99.90;;;;;;5067308;28;20265;-86
2022/11/15 01:53:20;;;;;;;4.45;3.58;;;8.70;99.90;;;;;;5065924;28;20226;-85
2022/11/15 01:55:48;;;;;;;3.80;3.47;;;8.60;99.90;;;;;;5066636;28;20215;-85
2022/11/15 01:58:15;;;;;;;3.80;3.50;;;8.60;99.90;;;;;;5065807;28;20293;-85
2022/11/15 02:01:11;;;;;;;3.33;3.00;;;8.60;99.90;;;;;;5065039;28;20237;-84
2022/11/15 02:03:50;;;;;;;3.83;3.40;;;8.60;99.90;;;;;;5055801;28;21050;-84
2022/11/15 02:06:21;;;;;;;3.92;3.33;;;8.60;99.90;;;;;;5065439;28;20232;-84
2022/11/15 02:08:51;;;;;;;3.25;3.03;;;8.60;99.90;;;;;;5065638;28;20549;-85
2022/11/15 02:11:20;;;;;;;3.67;3.47;;;8.60;99.90;;;;;;5065422;28;20206;-84
2022/11/15 02:13:47;;;;;;;6.20;3.83;;;8.60;99.90;;;;;;5065186;28;20228;-84
2022/11/15 02:16:28;;;;;;;4.10;3.33;;;8.60;99.90;;;;;;5065201;28;20296;-85
2022/11/15 02:19:04;;;;;;;5.25;4.13;;;8.60;99.90;;;;;;5064901;28;20217;-85
2022/11/15 02:21:39;;;;;;;3.58;3.28;;;8.50;99.90;;;;;;5065197;28;20206;-84
2022/11/15 02:24:22;;;;;;;4.20;3.90;;;8.50;99.90;;;;;;5064998;28;20221;-85
2022/11/15 02:27:23;;;;;;;3.53;3.22;;;8.50;99.90;;;;;;5065165;28;20226;-85
2022/11/15 02:30:13;;;;;;;4.65;3.20;;;8.50;99.90;;;;;;5064277;28;20637;-84
2022/11/15 02:32:47;;;;;;;4.35;3.67;;;8.40;99.90;;;;;;5038086;28;20198;-85
2022/11/15 02:35:24;;;;;;;3.33;3.05;;;8.40;99.90;;;;;;5049699;28;20198;-85
2022/11/15 02:37:57;;;;;;;3.92;3.50;;;8.40;99.90;;;;;;5064974;28;20293;-85
2022/11/15 02:40:34;;;;;;;4.78;3.35;;;8.40;99.90;;;;;;5066060;28;20328;-85
2022/11/15 02:46:02;;;;;;;7.35;4.35;;;8.40;99.90;;;;;;5061613;28;20228;-85
2022/11/15 02:48:32;;;;;;;4.13;3.83;;;8.40;99.90;;;;;;5064018;28;20190;-85
2022/11/15 02:51:00;;;;;;;3.90;3.50;;;8.40;99.90;;;;;;5064168;28;20216;-85
2022/11/15 02:53:28;;;;;;;3.45;3.17;;;8.40;99.90;;;;;;5064055;28;20233;-85
2022/11/15 02:55:57;;;;;;;6.20;3.90;;;8.40;99.90;;;;;;5065129;28;20235;-85
2022/11/15 02:58:39;;;;;;;3.70;3.40;;;8.50;99.90;;;;;;5063885;28;20205;-85
2022/11/15 03:01:31;;;;;;;3.63;3.42;;;8.50;99.90;;;;;;5064867;28;20286;-85
2022/11/15 03:04:21;;;;;;;4.32;3.22;;;8.40;99.90;;;;;;5064903;28;20745;-85
2022/11/15 03:06:53;;;;;;;4.20;3.80;;;8.40;99.90;;;;;;5065430;28;20211;-85
2022/11/15 03:09:34;;;;;;;3.83;3.45;;;8.40;99.90;;;;;;5065020;28;20209;-84
2022/11/15 03:12:13;;;;;;;5.60;4.50;;;8.30;99.90;;;;;;5065227;28;20216;-84
2022/11/15 03:14:50;;;;;;;4.88;4.28;;;8.30;99.90;;;;;;5064690;28;20233;-85
2022/11/15 03:17:26;;;;;;;3.88;3.58;;;8.20;99.90;;;;;;5065223;28;20207;-85
2022/11/15 03:19:59;;;;;;;3.83;3.25;;;8.20;99.90;;;;;;5064842;28;20689;-85
2022/11/15 03:22:36;;;;;;;4.03;3.65;;;8.20;99.90;;;;;;5065191;28;20225;-85
2022/11/15 03:25:10;;;;;;;3.97;3.67;;;8.20;99.90;;;;;;5065430;28;20247;-85
2022/11/15 03:27:44;;;;;;;3.95;3.55;;;8.20;99.90;;;;;;5064528;28;20201;-85
2022/11/15 03:30:13;;;;;;;3.90;3.60;;;8.20;99.90;;;;;;5064487;28;20209;-84
2022/11/15 03:32:45;;;;;;;4.00;3.63;;;8.20;99.90;;;;;;5064322;28;20206;-85
2022/11/15 03:35:16;;;;;;;4.43;3.60;;;8.20;99.90;;;;;;5064188;28;20205;-85
2022/11/15 03:37:50;;;;;;;3.70;3.40;;;8.30;99.90;;;;;;5064105;28;20202;-85
2022/11/15 03:40:22;;;;;;;3.70;3.30;;;8.20;99.90;;;;;;5065178;28;20280;-85
2022/11/15 03:42:58;;;;;;;3.75;3.45;;;8.20;99.90;;;;;;5064825;28;20214;-85
2022/11/15 03:45:31;;;;;;;3.67;3.38;;;8.30;99.90;;;;;;5064741;28;20210;-84
2022/11/15 03:48:03;;;;;;;3.67;3.38;;;8.30;99.90;;;;;;5044487;28;20210;-85
2022/11/15 03:50:32;;;;;;;4.05;3.67;;;8.30;99.90;;;;;;5045141;28;20568;-85
2022/11/15 03:52:59;;;;;;;5.32;4.10;;;8.30;99.90;;;;;;5064610;28;20209;-85
2022/11/15 03:55:27;;;;;;;3.42;3.13;;;8.20;99.90;;;;;;5064126;28;20206;-85
2022/11/15 03:57:58;;;;;;;4.10;3.80;;;8.10;99.90;;;;;;5064077;28;20274;-85
2022/11/15 04:00:27;;;;;;;4.10;3.85;;;8.20;99.90;;;;;;5064503;28;20642;-85
2022/11/15 04:02:54;;;;;;;6.72;4.15;;;8.20;99.90;;;;;;5063068;28;20268;-85
2022/11/15 04:05:26;;;;;;;4.85;4.38;;;8.20;99.90;;;;;;5063450;28;20216;-85
2022/11/15 04:07:53;;;;;;;4.35;3.95;;;8.20;99.90;;;;;;5063512;28;20261;-84
2022/11/15 04:10:20;;;;;;;4.50;3.85;;;8.20;99.90;;;;;;5063469;28;20209;-84
2022/11/15 04:12:47;;;;;;;4.80;4.15;;;8.20;99.90;;;;;;5063226;28;20197;-84
2022/11/15 04:15:15;;;;;;;3.78;3.47;;;8.20;99.90;;;;;;5062780;28;20205;-85
2022/11/15 04:17:44;;;;;;;4.53;4.15;;;8.20;99.90;;;;;;5062594;28;20707;-85
2022/11/15 04:25:52;;;;;;;5.65;4.55;;;8.20;99.90;;;;;;5064469;28;20209;-85
2022/11/15 04:28:22;;;;;;;3.30;3.10;;;8.20;99.90;;;;;;5063842;28;20206;-85
2022/11/15 04:30:54;;;;;;;4.70;4.30;;;8.20;99.90;;;;;;5063607;28;20216;-85
2022/11/15 04:33:29;;;;;;;4.30;4.00;;;8.20;99.90;;;;;;5062294;28;20218;-84
2022/11/15 04:38:50;;;;;;;4.43;3.97;;;8.20;99.90;;;;;;5062597;28;20217;-85
2022/11/15 04:41:23;;;;;;;4.18;3.80;;;8.10;99.90;;;;;;5062319;28;20222;-85
2022/11/15 04:43:50;;;;;;;4.82;4.10;;;8.10;99.90;;;;;;5062421;28;20566;-85
2022/11/15 04:46:16;;;;;;;5.68;4.70;;;8.10;99.90;;;;;;5062535;28;20739;-85
2022/11/15 04:48:43;;;;;;;5.47;5.07;;;8.10;99.90;;;;;;5062566;28;20270;-84
2022/11/15 04:51:10;;;;;;;5.10;4.60;;;8.00;99.90;;;;;;5064013;28;20302;-85
2022/11/15 04:53:43;;;;;;;6.10;5.65;;;8.00;99.90;;;;;;5066404;28;20609;-84
2022/11/15 04:56:10;;;;;;;5.07;4.57;;;8.00;99.90;;;;;;5067601;28;20229;-85
2022/11/15 04:58:37;;;;;;;6.00;5.50;;;8.00;99.90;;;;;;5066212;28;20222;-84
2022/11/15 05:01:09;;;;;;;6.57;4.53;;;8.00;99.90;;;;;;5067149;28;20206;-85
2022/11/15 05:06:22;;;;;;;5.80;5.30;;;8.00;99.90;;;;;;5066591;28;20236;-85
2022/11/15 05:08:51;;;;;;;6.30;5.70;;;8.00;99.90;;;;;;5066100;28;20217;-85
2022/11/15 05:11:20;;;;;;;7.43;5.05;;;8.00;99.90;;;;;;5066594;28;20260;-85
2022/11/15 05:13:47;;;;;;;5.72;5.25;;;8.10;99.90;;;;;;5066011;28;20257;-86
2022/11/15 05:16:14;;;;;;;5.40;4.03;;;8.10;99.90;;;;;;5067327;28;20190;-84
2022/11/15 05:18:41;;;;;;;4.68;4.15;;;8.10;99.90;;;;;;5065444;28;20271;-84
2022/11/15 05:21:10;;;;;;;4.75;4.30;;;8.10;99.90;;;;;;5066119;28;20235;-84
2022/11/15 05:23:37;;;;;;;4.90;4.40;;;8.10;99.90;;;;;;5066115;28;20309;-84
2022/11/15 05:26:07;;;;;;;5.65;5.15;;;8.00;99.90;;;;;;5066178;28;20217;-84
2022/11/15 05:28:34;;;;;;;8.30;6.60;;;8.00;99.90;;;;;;5066211;28;20198;-84
2022/11/15 05:31:02;;;;;;;5.97;5.47;;;7.90;99.90;;;;;;5066467;28;20206;-85
2022/11/15 05:33:29;;;;;;;6.22;5.47;;;7.80;99.90;;;;;;5064985;28;20236;-84
2022/11/15 05:36:01;;;;;;;5.20;4.80;;;7.80;99.90;;;;;;5067193;28;20210;-84
2022/11/15 05:38:50;;;;;;;6.07;5.57;;;7.90;99.90;;;;;;5059582;28;20668;-87
2022/11/15 05:41:39;;;;;;;5.43;4.97;;;7.90;99.90;;;;;;5062240;28;20215;-85
2022/11/15 05:44:19;;;;;;;7.50;5.30;;;7.90;99.90;;;;;;5065454;28;20223;-85
2022/11/15 05:47:07;;;;;;;5.90;5.13;;;7.90;99.90;;;;;;5065834;28;20237;-85
2022/11/15 05:55:34;;;;;;;7.28;5.88;;;8.00;99.90;;;;;;5022477;28;20205;-85
2022/11/15 05:58:17;;;;;;;5.93;5.53;;;8.00;99.90;;;;;;5022015;28;20214;-85
2022/11/15 06:01:17;;;;;;;6.88;4.78;;;8.00;99.90;;;;;;5052249;28;20275;-85
2022/11/15 06:04:15;;;;;;;;;;;;;;;;;;;;;
2022/11/15 06:10:08;;;;;;;4.80;4.35;;;8.00;99.90;;;;;;5031987;28;20210;-85
2022/11/15 06:12:37;;;;;;;5.30;4.55;;;8.00;99.90;;;;;;5052563;28;20208;-84
2022/11/15 06:25:27;;;;;;;5.82;5.15;;;7.90;99.90;;;;;;4402167;26;20229;-81
2022/11/15 06:27:55;;;;;;;4.85;4.28;;;7.80;99.90;;;;;;5061276;28;20568;-81
2022/11/15 06:30:22;;;;;;;4.40;3.95;;;7.80;99.90;;;;;;5071839;28;20194;-81
2022/11/15 06:32:49;;;;;;;5.13;4.63;;;7.90;99.90;;;;;;5057346;28;20659;-81
2022/11/15 06:36:23;;;;;;;5.10;4.68;;;7.90;99.90;;;;;;5064513;28;20832;-84
2022/11/15 06:45:55;;;;;;;6.22;5.22;;;7.90;99.90;;;;;;4983765;28;20206;-84
2022/11/15 06:48:22;;;;;;;6.38;5.85;;;7.80;99.90;;;;;;5013342;28;20757;-83
2022/11/15 06:50:51;;;;;;;7.28;6.13;;;7.90;99.90;;;;;;5006838;28;20203;-84
2022/11/15 06:53:19;;;;;;;7.68;5.85;;;8.00;99.90;;;;;;5056387;28;20213;-83
2022/11/15 06:55:45;;;;;;;7.00;6.50;;;8.00;99.90;;;;;;5088771;28;20221;-84
2022/11/15 06:58:12;;;;;;;6.72;6.32;;;8.00;99.90;;;;;;5087702;28;20221;-83
2022/11/15 07:00:40;;;;;;;8.02;7.32;;;8.10;99.90;;;;;;5091380;28;20657;-84
2022/11/15 07:03:12;;;;;;;6.13;5.72;;;8.20;99.90;;;;;;5084917;28;20218;-83
2022/11/15 07:05:38;;;;;;;5.95;5.00;;;8.30;99.90;;;;;;5081450;28;20221;-82
2022/11/15 07:08:05;;;;;;;6.07;5.55;;;8.40;99.90;;;;;;5062121;28;20206;-83
2022/11/15 07:10:32;;;;;;;7.65;6.85;;;8.50;99.90;;;;;;5060927;28;20206;-84
2022/11/15 07:12:59;;;;;;;8.57;6.45;;;8.60;99.90;;;;;;5071973;28;20261;-84
2022/11/15 07:15:27;;;;;;;10.40;6.20;;;8.70;99.90;;;;;;5068030;28;20225;-83
2022/11/15 07:17:53;;;;;;;7.10;6.40;;;8.80;99.90;;;;;;5060938;28;20218;-84
2022/11/15 07:20:22;;;;;;;6.47;5.88;;;8.90;99.90;;;;;;5066854;28;20542;-84
2022/11/15 07:22:48;;;;;;;8.73;7.97;;;9.00;99.90;;;;;;5059271;28;20298;-83
2022/11/15 07:25:15;;;;;;;8.13;6.28;;;9.10;99.90;;;;;;5059849;28;20236;-85
2022/11/15 07:27:57;;;;;;;7.10;6.53;;;9.10;99.90;;;;;;5070337;28;20197;-84
2022/11/15 07:30:24;;;;;;;9.45;7.32;;;9.20;99.90;;;;;;5073287;28;20206;-84
2022/11/15 07:32:54;;;;;;;12.03;8.10;;;9.30;99.90;;;;;;5081052;28;20579;-85
2022/11/15 07:35:22;;;;;;;12.50;8.82;;;9.40;99.90;;;;;;5077473;28;20471;-85
2022/11/15 07:38:00;;;;;;;7.47;6.78;;;9.40;99.90;;;;;;5114235;22;20189;-84
2022/11/15 07:41:03;;;;;;;6.90;6.20;;;9.50;99.90;;;;;;5048043;28;20225;-84
2022/11/15 07:46:12;;;;;;;10.05;9.07;;;9.70;99.90;;;;;;5042374;28;20282;-83
2022/11/15 07:48:40;;;;;;;7.07;6.38;;;9.90;99.90;;;;;;5044580;28;20216;-83
2022/11/15 10:28:54;;;;;;;3.53;3.33;;;16.10;99.70;;;;;;6030665;22;20968;-83
2022/11/15 10:31:25;;;;;;;6.13;4.60;;;16.10;99.80;;;;;;5041847;28;20545;-82
2022/11/15 10:33:59;;;;;;;6.67;6.17;;;16.10;99.80;;;;;;5040379;28;20878;-83
2022/11/15 10:36:26;;;;;;;8.23;4.20;;;16.20;99.30;;;;;;5040284;28;20459;-83
2022/11/15 10:39:04;;;;;;;5.30;4.60;;;16.30;99.20;;;;;;5040121;28;20457;-83
2022/11/15 10:41:36;;;;;;;10.53;5.50;;;16.30;99.30;;;;;;5039660;28;20456;-83
2022/11/15 10:44:27;;;;;;;5.77;4.70;;;16.40;99.20;;;;;;5041906;28;20494;-82
2022/11/15 10:47:25;;;;;;;7.30;5.27;;;16.50;98.70;;;;;;5046044;28;20472;-82
2022/11/15 10:50:07;;;;;;;5.07;4.47;;;16.50;99.10;;;;;;5010337;28;20574;-82
2022/11/15 10:52:36;;;;;;;7.73;5.40;;;16.50;98.60;;;;;;5045319;28;20453;-83
2022/11/15 10:55:25;;;;;;;6.00;5.30;;;16.50;99.00;;;;;;5045753;28;20449;-82
2022/11/15 10:57:54;;;;;;;4.83;4.43;;;16.40;98.70;;;;;;5045105;28;20480;-82
2022/11/15 11:00:32;;;;;;;7.93;5.50;;;16.40;99.40;;;;;;5045218;28;20466;-82
2022/11/15 11:03:01;;;;;;;4.70;4.23;;;16.30;99.50;;;;;;5051637;28;20504;-82
2022/11/15 11:05:31;;;;;;;8.00;5.50;;;16.30;99.90;;;;;;5046659;28;20496;-82
2022/11/15 11:08:01;;;;;;;6.43;5.73;;;16.20;99.90;;;;;;5045221;28;20836;-82
2022/11/15 11:10:28;;;;;;;7.60;5.70;;;16.10;99.90;;;;;;5044574;28;20477;-82
2022/11/15 11:12:55;;;;;;;6.23;5.63;;;16.10;99.90;;;;;;5045967;28;20449;-82
2022/11/15 11:15:27;;;;;;;6.83;5.57;;;16.00;99.90;;;;;;5044841;28;20930;-82
2022/11/15 11:18:09;;;;;;;7.17;6.57;;;16.00;99.90;;;;;;5044572;28;20462;-82
2022/11/15 11:20:40;;;;;;;6.87;5.80;;;15.90;99.90;;;;;;5046345;28;20495;-82
2022/11/15 11:23:28;;;;;;;6.93;4.80;;;16.00;99.90;;;;;;5046739;28;20536;-82
2022/11/15 11:26:08;;;;;;;7.10;5.77;;;16.00;99.90;;;;;;5045987;28;20448;-82
2022/11/15 11:28:42;;;;;;;7.60;5.80;;;16.10;99.90;;;;;;5045289;28;20450;-82
2022/11/15 11:31:24;;;;;;;8.10;4.60;;;16.20;99.90;;;;;;5045235;28;20449;-82
2022/11/15 11:34:05;;;;;;;5.67;3.60;;;16.20;99.90;;;;;;5045225;28;20446;-82
2022/11/15 11:36:41;;;;;;;7.10;3.30;;;16.30;99.90;;;;;;5045389;28;20447;-82
2022/11/15 11:39:22;;;;;;;3.93;3.63;;;16.30;99.70;;;;;;5045182;28;20525;-82
2022/11/15 11:41:58;;;;;;;5.70;3.60;;;16.30;99.90;;;;;;5045254;28;20449;-82
2022/11/15 11:44:44;;;;;;;3.00;2.63;;;16.30;99.90;;;;;;5045297;28;20588;-82
2022/11/15 11:47:12;;;;;;;3.40;3.10;;;16.40;99.50;;;;;;5045269;28;20456;-83
2022/11/15 11:49:47;;;;;;;4.37;2.80;;;16.50;99.30;;;;;;5043566;28;20471;-82
2022/11/15 11:52:18;;;;;;;2.10;1.90;;;16.60;98.50;;;;;;5045117;28;20461;-82
2022/11/15 11:54:55;;;;;;;3.00;2.70;;;16.60;98.50;;;;;;5044993;28;20460;-82
2022/11/15 11:57:31;;;;;;;2.13;2.03;;;16.50;98.40;;;;;;5048266;28;20433;-82
2022/11/15 12:00:03;;;;;;;3.20;2.30;;;16.50;98.60;;;;;;5048989;28;20877;-82
2022/11/15 12:02:35;;;;;;;9.63;3.57;;;16.50;98.60;;;;;;5049282;28;20456;-82
2022/11/15 12:05:10;;;;;;;5.27;3.00;;;16.60;99.40;;;;;;5049906;28;20554;-82
2022/11/15 12:07:40;;;;;;;3.70;3.40;;;16.80;99.60;;;;;;5048908;28;20457;-82
2022/11/15 12:10:18;;;;;;;7.50;3.10;;;17.00;98.80;;;;;;5048735;28;20484;-82
2022/11/15 12:12:51;;;;;;;4.07;2.67;;;17.00;98.50;;;;;;5052295;28;20450;-82
2022/11/15 12:15:23;;;;;;;3.67;2.63;;;17.10;98.80;;;;;;5049303;28;20913;-82
2022/11/15 12:17:50;;;;;;;2.97;2.00;;;17.10;98.40;;;;;;5049200;28;20455;-82
2022/11/15 12:20:20;;;;;;;7.50;2.50;;;17.10;98.00;;;;;;5048720;28;20479;-82
2022/11/15 12:22:54;;;;;;;4.20;3.80;;;17.10;98.40;;;;;;5048243;28;20482;-82
2022/11/15 12:25:23;;;;;;;4.03;3.63;;;17.00;99.00;;;;;;5048890;28;20499;-82
2022/11/15 12:27:55;;;;;;;5.77;4.40;;;17.00;99.30;;;;;;5048767;28;20461;-82
2022/11/15 12:30:23;;;;;;;5.83;3.87;;;16.90;99.70;;;;;;5048971;28;20474;-83
2022/11/15 12:32:54;;;;;;;5.50;4.50;;;16.90;99.80;;;;;;5050418;28;20451;-83
2022/11/15 12:35:35;;;;;;;6.43;4.60;;;16.80;99.90;;;;;;5051115;28;20473;-83
2022/11/15 12:38:02;;;;;;;4.73;4.33;;;16.70;99.90;;;;;;5049569;28;20441;-83
2022/11/15 12:40:38;;;;;;;4.73;4.30;;;16.70;99.90;;;;;;5049137;28;20466;-83
2022/11/15 12:43:41;;;;;;;4.53;4.13;;;16.60;99.90;;;;;;5048979;28;20947;-84
2022/11/15 12:46:13;;;;;;;4.60;4.20;;;16.60;99.90;;;;;;5046371;28;20452;-82
2022/11/15 12:48:49;;;;;;;5.23;4.73;;;16.50;99.90;;;;;;5047765;28;20451;-83
2022/11/15 12:51:20;;;;;;;5.13;4.53;;;16.40;99.90;;;;;;5047832;28;20536;-83
2022/11/15 12:53:47;;;;;;;5.40;5.03;;;16.40;99.90;;;;;;5055459;28;20552;-83
2022/11/15 12:56:24;;;;;;;6.23;5.37;;;16.30;99.90;;;;;;5049991;28;20456;-83
2022/11/15 12:58:53;;;;;;;5.80;4.70;;;16.30;99.90;;;;;;5048935;28;20456;-83
2022/11/15 13:01:58;;;;;;;5.83;5.00;;;16.20;99.90;;;;;;5048571;28;20833;-83
2022/11/15 13:04:27;;;;;;;6.87;5.67;;;16.20;99.90;;;;;;5048448;28;20492;-83
2022/11/15 13:06:57;;;;;;;8.70;6.03;;;16.10;99.90;;;;;;5048439;28;20458;-83
2022/11/15 13:09:53;;;;;;;6.60;6.00;;;16.10;99.90;;;;;;5047582;28;20481;-83
2022/11/15 13:12:52;;;;;;;7.97;5.47;;;16.00;99.90;;;;;;5040951;28;20453;-83
2022/11/15 13:15:54;;;;;;;5.83;4.90;;;15.90;99.90;;;;;;5048237;28;20438;-83
2022/11/15 13:18:38;;;;;;;5.30;4.80;;;15.90;99.90;;;;;;5015889;28;20458;-83
2022/11/15 13:24:11;;;;;;;5.43;4.83;;;15.80;99.90;;;;;;5048320;28;20504;-83
2022/11/15 13:26:40;;;;;;;6.00;5.40;;;15.70;99.90;;;;;;5048042;28;20542;-83
2022/11/15 13:29:16;;;;;;;5.43;4.57;;;15.70;99.90;;;;;;5047291;28;20480;-83
2022/11/15 13:31:44;;;;;;;7.60;6.90;;;15.70;99.90;;;;;;5048586;28;20451;-82
2022/11/15 13:34:30;;;;;;;5.40;5.00;;;15.70;99.90;;;;;;5047841;28;20448;-83
2022/11/15 13:36:57;;;;;;;5.23;4.50;;;15.60;99.90;;;;;;5047744;28;20454;-83
2022/11/15 13:39:31;;;;;;;5.80;5.30;;;15.60;99.90;;;;;;5047038;28;20536;-83
2022/11/15 13:41:58;;;;;;;6.50;5.60;;;15.50;99.90;;;;;;5047306;28;20561;-83
2022/11/15 13:44:29;;;;;;;6.20;5.33;;;15.40;99.90;;;;;;5047899;28;20581;-83
2022/11/15 13:47:07;;;;;;;6.63;5.80;;;15.40;99.90;;;;;;5047500;28;20455;-82
2022/11/15 13:49:34;;;;;;;5.77;5.23;;;15.30;99.90;;;;;;5051149;28;20475;-83
2022/11/15 13:52:05;;;;;;;6.87;6.17;;;15.30;99.90;;;;;;5048500;28;20451;-82
2022/11/15 13:54:36;;;;;;;6.70;5.93;;;15.20;99.90;;;;;;5046928;28;20446;-83
2022/11/15 13:57:09;;;;;;;8.70;6.50;;;15.20;99.90;;;;;;5047859;28;20451;-83
2022/11/15 13:59:44;;;;;;;7.23;5.40;;;15.10;99.90;;;;;;5046530;28;20500;-83
2022/11/15 14:02:14;;;;;;;6.37;5.30;;;15.10;99.90;;;;;;5046512;28;20457;-83
2022/11/15 14:04:48;;;;;;;4.87;4.57;;;15.00;99.90;;;;;;5046765;28;20626;-83
2022/11/15 14:07:19;;;;;;;6.77;4.50;;;15.00;99.90;;;;;;5046461;28;20461;-82
2022/11/15 14:09:48;;;;;;;6.13;5.60;;;14.90;99.90;;;;;;5046721;28;20469;-83
2022/11/15 14:12:27;;;;;;;5.63;5.13;;;14.80;99.90;;;;;;5046794;28;20460;-83
2022/11/15 14:14:58;;;;;;;5.33;4.83;;;14.70;99.90;;;;;;5046613;28;20461;-82
2022/11/15 14:17:37;;;;;;;8.47;5.87;;;14.70;99.90;;;;;;5046180;28;20477;-83
2022/11/15 14:20:19;;;;;;;6.27;5.77;;;14.60;99.90;;;;;;5045698;28;20478;-83
2022/11/15 14:22:53;;;;;;;7.87;5.30;;;14.50;99.90;;;;;;5045970;28;20453;-83
2022/11/15 14:25:22;;;;;;;5.63;5.13;;;14.50;99.90;;;;;;5045658;28;20559;-83
2022/11/15 14:30:53;;;;;;;8.60;5.90;;;14.50;99.90;;;;;;5023222;28;20496;-82
2022/11/15 14:33:23;;;;;;;6.37;5.30;;;14.50;99.90;;;;;;5041163;28;20464;-83
2022/11/15 14:35:50;;;;;;;6.27;5.60;;;14.50;99.90;;;;;;5040574;28;20444;-83
2022/11/15 14:38:16;;;;;;;5.83;5.33;;;14.50;99.90;;;;;;5040378;28;20455;-83
2022/11/15 14:40:45;;;;;;;6.33;5.80;;;14.50;99.90;;;;;;5039898;28;21041;-82
2022/11/15 14:43:12;;;;;;;7.03;6.43;;;14.50;99.90;;;;;;5039940;28;20456;-83
2022/11/15 14:45:40;;;;;;;6.50;5.50;;;14.40;99.90;;;;;;5051402;28;20587;-83
2022/11/15 14:48:07;;;;;;;5.97;5.50;;;14.30;99.90;;;;;;5041061;28;20458;-83
2022/11/15 14:50:38;;;;;;;5.37;4.87;;;14.20;99.90;;;;;;5040222;28;20468;-83
2022/11/15 14:53:05;;;;;;;4.43;4.03;;;14.20;99.90;;;;;;5040489;28;20453;-83
2022/11/15 14:55:35;;;;;;;5.93;5.33;;;14.10;99.90;;;;;;5040095;28;20456;-83
2022/11/15 14:58:04;;;;;;;5.50;5.00;;;14.10;99.90;;;;;;5039963;28;20821;-83
2022/11/15 15:00:34;;;;;;;6.57;4.80;;;14.00;99.90;;;;;;5039331;28;20886;-83
2022/11/15 15:03:01;;;;;;;7.70;4.63;;;14.00;99.90;;;;;;5039620;28;20464;-83
2022/11/15 15:05:33;;;;;;;6.30;5.70;;;14.00;99.90;;;;;;5041201;28;20487;-83
2022/11/15 15:08:00;;;;;;;4.87;4.43;;;13.90;99.90;;;;;;5039887;28;20968;-83
2022/11/15 15:10:31;;;;;;;5.23;4.73;;;13.90;99.90;;;;;;5039663;28;20534;-83
2022/11/15 15:12:58;;;;;;;8.30;5.23;;;13.80;99.90;;;;;;5041523;28;20445;-83
2022/11/15 15:15:32;;;;;;;5.00;4.30;;;13.90;99.90;;;;;;5040623;28;20444;-83
2022/11/15 15:17:59;;;;;;;5.80;5.30;;;13.80;99.90;;;;;;5039013;28;20547;-83
2022/11/15 15:20:25;;;;;;;6.37;5.60;;;13.70;99.90;;;;;;5038480;28;20481;-82
2022/11/15 15:22:52;;;;;;;8.80;5.77;;;13.60;99.90;;;;;;5037816;28;20827;-83
2022/11/15 15:25:22;;;;;;;6.30;4.60;;;13.60;99.90;;;;;;5037639;28;20504;-82
2022/11/15 15:27:49;;;;;;;6.13;5.43;;;13.60;99.90;;;;;;5037366;28;20981;-82
2022/11/15 15:30:17;;;;;;;7.87;5.80;;;13.60;99.90;;;;;;5037726;28;20491;-83
2022/11/15 15:32:45;;;;;;;5.93;5.43;;;13.50;99.90;;;;;;5037470;28;20485;-82
2022/11/15 15:35:13;;;;;;;6.37;5.87;;;13.50;99.90;;;;;;5037280;28;20449;-82
2022/11/15 15:37:41;;;;;;;7.73;6.33;;;13.40;99.90;;;;;;5037442;28;20457;-82
2022/11/15 15:40:13;;;;;;;6.77;6.27;;;13.30;99.90;;;;;;5049874;28;20470;-82
2022/11/15 15:42:40;;;;;;;8.07;7.10;;;13.20;99.90;;;;;;5039147;28;20484;-82
2022/11/15 15:45:08;;;;;;;6.93;6.37;;;13.20;99.90;;;;;;5038312;28;21025;-82
2022/11/15 15:47:35;;;;;;;7.83;6.90;;;13.10;99.90;;;;;;5038322;28;20467;-82
2022/11/15 15:50:04;;;;;;;7.07;6.47;;;13.00;99.90;;;;;;5038048;28;20541;-82
2022/11/15 15:52:30;;;;;;;8.13;6.53;;;13.00;99.90;;;;;;5038063;28;20449;-83
2022/11/15 15:54:57;;;;;;;6.70;6.00;;;12.90;99.90;;;;;;5038296;28;20445;-82
2022/11/15 15:57:24;;;;;;;7.20;6.40;;;12.90;99.90;;;;;;5038610;28;20457;-82
2022/11/15 15:59:51;;;;;;;9.50;6.67;;;12.90;99.90;;;;;;5037735;28;20480;-82
2022/11/15 16:02:17;;;;;;;8.40;7.70;;;12.90;99.90;;;;;;5039217;28;20449;-81
2022/11/15 16:04:44;;;;;;;7.20;6.40;;;12.90;99.90;;;;;;5039313;28;20460;-82
2022/11/15 16:07:18;;;;;;;7.30;6.60;;;12.90;99.90;;;;;;5039254;28;20449;-82
2022/11/15 16:10:03;;;;;;;7.90;7.10;;;12.80;99.90;;;;;;5037752;28;20484;-82
2022/11/15 16:12:31;;;;;;;7.83;7.03;;;12.80;99.90;;;;;;5037310;28;20456;-82
2022/11/15 16:14:58;;;;;;;7.33;6.63;;;12.80;99.90;;;;;;5037259;28;20449;-81
2022/11/15 16:17:28;;;;;;;8.63;7.03;;;12.80;99.90;;;;;;5037570;28;20453;-82
2022/11/15 16:19:54;;;;;;;8.23;7.43;;;12.80;99.90;;;;;;5037225;28;20468;-82
2022/11/15 16:22:23;;;;;;;10.53;7.60;;;12.80;99.90;;;;;;5037906;28;20453;-82
2022/11/15 16:24:49;;;;;;;8.40;7.60;;;12.80;99.90;;;;;;5037515;28;20456;-82
2022/11/15 16:27:18;;;;;;;10.10;7.80;;;12.80;99.90;;;;;;5037720;28;20452;-82
2022/11/15 16:29:45;;;;;;;12.50;6.93;;;12.80;99.90;;;;;;5037127;28;20579;-82
2022/11/15 16:32:12;;;;;;;8.77;7.97;;;12.80;99.90;;;;;;5036959;28;20449;-82
2022/11/15 16:34:39;;;;;;;9.93;7.00;;;12.80;99.90;;;;;;5048157;28;20453;-81
2022/11/15 16:37:06;;;;;;;8.03;7.33;;;12.80;99.90;;;;;;5038406;28;20471;-82
2022/11/15 16:39:34;;;;;;;8.40;7.70;;;12.80;99.90;;;;;;5036866;28;20476;-82
2022/11/15 16:42:02;;;;;;;9.37;8.50;;;12.80;99.90;;;;;;5037050;28;20463;-82
2022/11/15 16:47:12;;;;;;;10.47;9.57;;;12.70;99.90;;;;;;5073176;28;20499;-85
2022/11/15 16:49:45;;;;;;;13.73;8.20;;;12.70;99.90;;;;;;5076104;28;20550;-86
2022/11/15 16:52:14;;;;;;;9.20;8.33;;;12.70;99.90;;;;;;5075773;28;20450;-85
2022/11/15 16:54:55;;;;;;;9.53;8.67;;;12.70;99.90;;;;;;5065819;28;20501;-86
2022/11/15 17:00:51;;;;;;;11.87;10.17;;;12.50;99.90;;;;;;5053589;28;20988;-87
2022/11/15 17:03:41;;;;;;;10.30;7.70;;;12.50;99.90;;;;;;5068906;28;20447;-84